METAR Data
IDs: Format: Raw Decoded Include TAF

Data at: 1358 UTC 20 Oct 2021

METAR for:KVCT (Victoria Rgnl, TX, US)
Text:KVCT 201351Z 03003KT 6SM BR CLR 20/19 A3008 RMK AO2 SLP184 T02000189
Temperature: 20.0°C ( 68°F)
Dewpoint: 18.9°C ( 66°F) [RH = 93%]
Pressure (altimeter):30.08 inches Hg (1018.7 mb) [Sea level pressure: 1018.4 mb]
Winds:from the NNE (30 degrees) at 3 MPH (3 knots; 1.5 m/s)
Visibility: 6 sm ( 10 km)
Ceiling:at least 12,000 feet AGL
Clouds:sky clear below 12,000 feet AGL
Weather:BR (mist)